Time;durP1;ratioP1;P1;durP2;ratioP2;P2;SDS_P1;SDS_P2;PMS_P1;PMS_P2;Temp;Humidity;BMP_temperature;BMP_pressure;BME280_temperature;BME280_humidity;BME280_pressure;Samples;Min_cycle;Max_cycle;Signal;HPM_P1;HPM_P2
2021/05/14 00:01:39;;;;;;;2.30;1.83;;;;;;;;;;5009259;28;20172;-78
2021/05/14 00:04:04;;;;;;;2.38;1.60;;;;;;;;;;5008829;28;20381;-77
2021/05/14 00:06:29;;;;;;;3.25;1.77;;;;;;;;;;5008786;28;20028;-77
2021/05/14 00:08:54;;;;;;;2.38;1.65;;;;;;;;;;5009072;28;20029;-76
2021/05/14 00:11:20;;;;;;;2.05;1.45;;;;;;;;;;5008234;28;20030;-78
2021/05/14 00:13:45;;;;;;;2.22;1.52;;;;;;;;;;4991210;28;20064;-76
2021/05/14 00:16:10;;;;;;;4.20;2.03;;;;;;;;;;5006447;28;20041;-77
2021/05/14 00:18:35;;;;;;;2.08;1.63;;;;;;;;;;5009126;28;20022;-77
2021/05/14 00:21:01;;;;;;;3.50;1.80;;;;;;;;;;5008942;28;20026;-77
2021/05/14 00:23:26;;;;;;;3.83;1.63;;;;;;;;;;5002603;28;20026;-77
2021/05/14 00:25:51;;;;;;;3.17;1.95;;;;;;;;;;5012095;28;20923;-77
2021/05/14 00:28:16;;;;;;;2.70;1.60;;;;;;;;;;5008735;28;20029;-76
2021/05/14 00:30:42;;;;;;;2.10;1.40;;;;;;;;;;5008024;28;20025;-77
2021/05/14 00:33:07;;;;;;;4.65;1.63;;;;;;;;;;5005484;28;20038;-77
2021/05/14 00:35:32;;;;;;;2.00;1.42;;;;;;;;;;5006625;28;20041;-78
2021/05/14 00:37:58;;;;;;;2.83;1.67;;;;;;;;;;5008939;28;20497;-78
2021/05/14 00:40:23;;;;;;;3.45;1.50;;;;;;;;;;5006572;28;20065;-77
2021/05/14 00:42:48;;;;;;;2.22;1.42;;;;;;;;;;5007840;28;20125;-76
2021/05/14 00:45:13;;;;;;;3.35;1.50;;;;;;;;;;5006759;28;20388;-76
2021/05/14 00:47:39;;;;;;;2.88;1.48;;;;;;;;;;5007379;28;20022;-78
2021/05/14 00:50:05;;;;;;;2.05;1.52;;;;;;;;;;5008496;28;20034;-78
2021/05/14 00:52:31;;;;;;;1.95;1.08;;;;;;;;;;5008794;28;20097;-78
2021/05/14 00:54:56;;;;;;;4.25;1.95;;;;;;;;;;5009903;28;20116;-78
2021/05/14 00:57:22;;;;;;;3.10;1.42;;;;;;;;;;5008363;28;20112;-77
2021/05/14 00:59:48;;;;;;;4.25;1.40;;;;;;;;;;5008952;28;20018;-78
2021/05/14 01:02:14;;;;;;;3.53;1.42;;;;;;;;;;5006516;28;20366;-77
2021/05/14 01:04:40;;;;;;;3.47;1.80;;;;;;;;;;5008084;28;20030;-77
2021/05/14 01:07:05;;;;;;;6.82;1.63;;;;;;;;;;5008366;28;20045;-78
2021/05/14 01:09:31;;;;;;;3.95;1.45;;;;;;;;;;5007213;28;20552;-76
2021/05/14 01:11:57;;;;;;;2.65;1.58;;;;;;;;;;5008327;28;20491;-77
2021/05/14 01:14:22;;;;;;;2.95;1.50;;;;;;;;;;5007255;28;20402;-76
2021/05/14 01:16:47;;;;;;;2.38;1.45;;;;;;;;;;5006517;28;20453;-77
2021/05/14 01:19:12;;;;;;;2.88;1.40;;;;;;;;;;5007410;28;20483;-77
2021/05/14 01:21:38;;;;;;;4.72;1.50;;;;;;;;;;5007683;28;20026;-76
2021/05/14 01:24:03;;;;;;;3.65;1.77;;;;;;;;;;5011992;28;20022;-78
2021/05/14 01:26:29;;;;;;;3.13;1.30;;;;;;;;;;5007017;28;20034;-76
2021/05/14 01:28:54;;;;;;;2.45;1.23;;;;;;;;;;5010898;28;20030;-76
2021/05/14 01:31:20;;;;;;;2.35;1.33;;;;;;;;;;5010511;28;20568;-76
2021/05/14 01:33:46;;;;;;;2.72;1.10;;;;;;;;;;5012008;28;20022;-77
2021/05/14 01:36:11;;;;;;;1.38;1.10;;;;;;;;;;5009978;28;20453;-76
2021/05/14 01:38:36;;;;;;;4.93;1.33;;;;;;;;;;5010684;28;20025;-77
2021/05/14 01:41:02;;;;;;;1.90;1.17;;;;;;;;;;5009244;28;20022;-76
2021/05/14 01:43:27;;;;;;;3.47;1.40;;;;;;;;;;5011847;28;20054;-77
2021/05/14 01:45:52;;;;;;;1.88;1.40;;;;;;;;;;5010156;28;20389;-77
2021/05/14 01:48:18;;;;;;;1.40;1.02;;;;;;;;;;5010663;28;20014;-75
2021/05/14 01:50:43;;;;;;;1.90;1.10;;;;;;;;;;5010644;28;20139;-76
2021/05/14 01:53:08;;;;;;;3.33;1.13;;;;;;;;;;4994008;28;20144;-76
2021/05/14 01:55:34;;;;;;;1.95;1.33;;;;;;;;;;4999921;28;20137;-77
2021/05/14 01:58:00;;;;;;;1.67;1.10;;;;;;;;;;4991913;28;20093;-76
2021/05/14 02:00:25;;;;;;;2.80;1.10;;;;;;;;;;4997830;28;20058;-76
2021/05/14 02:02:50;;;;;;;3.05;1.38;;;;;;;;;;4995126;28;20056;-76
2021/05/14 02:05:16;;;;;;;2.50;1.10;;;;;;;;;;5008454;28;20045;-76
2021/05/14 02:07:41;;;;;;;3.83;1.20;;;;;;;;;;4993253;28;20029;-76
2021/05/14 02:10:07;;;;;;;1.63;1.15;;;;;;;;;;4991043;28;20030;-77
2021/05/14 02:12:32;;;;;;;2.00;1.20;;;;;;;;;;4974601;28;20113;-77
2021/05/14 02:14:58;;;;;;;1.98;1.00;;;;;;;;;;4990538;28;20228;-80
2021/05/14 02:17:23;;;;;;;3.83;1.40;;;;;;;;;;4993720;28;20397;-77
2021/05/14 02:19:48;;;;;;;1.75;1.08;;;;;;;;;;4992036;28;20027;-76
2021/05/14 02:22:14;;;;;;;2.78;1.15;;;;;;;;;;4997942;28;20029;-77
2021/05/14 02:24:39;;;;;;;1.60;1.10;;;;;;;;;;4993504;28;20113;-76
2021/05/14 02:27:04;;;;;;;1.95;1.20;;;;;;;;;;4991574;28;20034;-77
2021/05/14 02:29:33;;;;;;;3.88;1.30;;;;;;;;;;4991547;28;20065;-77
2021/05/14 02:31:59;;;;;;;2.40;1.20;;;;;;;;;;5004991;28;20112;-77
2021/05/14 02:34:24;;;;;;;2.92;1.33;;;;;;;;;;4989734;28;20117;-76
2021/05/14 02:36:49;;;;;;;3.13;1.40;;;;;;;;;;4990931;28;20592;-76
2021/05/14 02:39:14;;;;;;;3.63;1.30;;;;;;;;;;4999698;28;20022;-75
2021/05/14 02:41:39;;;;;;;2.90;1.30;;;;;;;;;;5008403;28;20097;-76
2021/05/14 02:44:05;;;;;;;1.92;1.17;;;;;;;;;;4973527;28;20041;-76
2021/05/14 02:46:32;;;;;;;1.88;1.30;;;;;;;;;;4991028;28;20030;-76
2021/05/14 02:48:57;;;;;;;2.38;1.40;;;;;;;;;;4990979;28;20033;-76
2021/05/14 02:51:22;;;;;;;2.08;1.35;;;;;;;;;;4993476;28;20141;-76
2021/05/14 02:53:47;;;;;;;1.90;1.20;;;;;;;;;;5000367;28;20096;-77
2021/05/14 02:56:12;;;;;;;3.47;1.10;;;;;;;;;;4993799;28;20045;-77
2021/05/14 02:58:38;;;;;;;2.30;1.20;;;;;;;;;;5006923;28;20041;-76
2021/05/14 03:01:03;;;;;;;2.45;1.40;;;;;;;;;;5000925;28;20114;-76
2021/05/14 03:03:28;;;;;;;2.17;1.20;;;;;;;;;;5003124;28;20112;-76
2021/05/14 03:05:53;;;;;;;2.22;1.30;;;;;;;;;;4989900;28;20038;-76
2021/05/14 03:08:18;;;;;;;2.15;1.40;;;;;;;;;;4990300;28;20064;-76
2021/05/14 03:10:44;;;;;;;3.17;1.33;;;;;;;;;;4990588;28;20030;-77
2021/05/14 03:13:09;;;;;;;3.38;1.30;;;;;;;;;;5002916;28;20621;-76
2021/05/14 03:15:34;;;;;;;2.88;1.10;;;;;;;;;;4989427;28;20528;-76
2021/05/14 03:17:59;;;;;;;1.98;1.20;;;;;;;;;;5003222;28;20363;-75
2021/05/14 03:20:24;;;;;;;4.05;1.50;;;;;;;;;;4998526;28;20030;-75
2021/05/14 03:22:49;;;;;;;2.55;1.20;;;;;;;;;;5002574;28;20022;-76
2021/05/14 03:25:15;;;;;;;1.90;1.20;;;;;;;;;;4999974;28;20061;-77
2021/05/14 03:27:40;;;;;;;1.50;1.17;;;;;;;;;;4989718;28;20022;-76
2021/05/14 03:30:07;;;;;;;3.92;1.30;;;;;;;;;;5008196;28;20025;-77
2021/05/14 03:32:32;;;;;;;2.10;1.20;;;;;;;;;;4996359;28;20137;-77
2021/05/14 03:34:57;;;;;;;3.97;1.20;;;;;;;;;;5003772;28;20121;-75
2021/05/14 03:37:22;;;;;;;1.67;1.13;;;;;;;;;;4993506;28;20582;-75
2021/05/14 03:39:51;;;;;;;1.75;1.10;;;;;;;;;;4996114;28;20025;-76
2021/05/14 03:42:26;;;;;;;2.00;1.20;;;;;;;;;;5004636;28;20113;-76
2021/05/14 03:44:51;;;;;;;1.65;1.15;;;;;;;;;;5008198;28;20038;-77
2021/05/14 03:47:17;;;;;;;1.88;1.10;;;;;;;;;;4996090;28;20026;-77
2021/05/14 03:49:42;;;;;;;6.47;1.38;;;;;;;;;;4992045;28;20029;-77
2021/05/14 03:52:09;;;;;;;3.03;1.25;;;;;;;;;;4973535;28;20104;-77
2021/05/14 03:54:34;;;;;;;3.05;1.30;;;;;;;;;;5004962;28;20358;-76
2021/05/14 03:57:00;;;;;;;2.00;1.30;;;;;;;;;;4989282;28;20046;-76
2021/05/14 03:59:25;;;;;;;4.32;1.23;;;;;;;;;;4991835;28;20038;-77
2021/05/14 04:01:51;;;;;;;2.13;1.40;;;;;;;;;;4990335;28;20543;-77
2021/05/14 04:04:17;;;;;;;4.00;1.45;;;;;;;;;;4992055;28;20385;-76
2021/05/14 04:06:42;;;;;;;2.00;1.33;;;;;;;;;;4988474;28;20211;-76
2021/05/14 04:09:07;;;;;;;2.20;1.35;;;;;;;;;;4987451;28;20145;-75
2021/05/14 04:12:04;;;;;;;1.85;1.17;;;;;;;;;;4988019;28;20575;-77
2021/05/14 04:14:29;;;;;;;3.10;1.17;;;;;;;;;;4987164;28;20091;-76
2021/05/14 04:16:54;;;;;;;3.08;1.48;;;;;;;;;;4995253;28;20080;-76
2021/05/14 04:19:20;;;;;;;1.80;1.30;;;;;;;;;;4994679;28;20038;-77
2021/05/14 04:21:45;;;;;;;2.05;1.27;;;;;;;;;;4975943;28;20430;-77
2021/05/14 04:24:10;;;;;;;2.75;1.40;;;;;;;;;;5001578;28;20032;-77
2021/05/14 04:26:35;;;;;;;2.20;1.30;;;;;;;;;;4989397;28;20440;-77
2021/05/14 04:29:01;;;;;;;3.15;1.02;;;;;;;;;;4994502;28;20033;-75
2021/05/14 04:31:26;;;;;;;4.30;1.17;;;;;;;;;;5001232;28;20051;-76
2021/05/14 04:33:51;;;;;;;1.73;1.10;;;;;;;;;;4974254;28;20093;-76
2021/05/14 04:36:16;;;;;;;3.75;1.17;;;;;;;;;;4996961;28;20041;-78
2021/05/14 04:38:41;;;;;;;1.60;1.10;;;;;;;;;;4990727;28;20438;-73
2021/05/14 04:41:07;;;;;;;2.22;1.35;;;;;;;;;;5001234;28;20072;-74
2021/05/14 04:43:32;;;;;;;3.00;1.33;;;;;;;;;;5000625;28;20141;-73
2021/05/14 04:45:57;;;;;;;3.38;1.45;;;;;;;;;;5008285;28;20109;-75
2021/05/14 04:48:22;;;;;;;2.17;1.00;;;;;;;;;;4991627;28;20044;-75
2021/05/14 04:50:47;;;;;;;2.60;1.10;;;;;;;;;;4986016;28;20030;-74
2021/05/14 04:53:13;;;;;;;1.70;0.80;;;;;;;;;;5004467;28;20027;-73
2021/05/14 04:55:39;;;;;;;1.35;0.75;;;;;;;;;;5006117;28;20057;-74
2021/05/14 04:58:04;;;;;;;1.70;0.90;;;;;;;;;;5007479;28;20034;-76
2021/05/14 05:00:29;;;;;;;1.95;0.90;;;;;;;;;;5006628;28;20026;-74
2021/05/14 05:02:55;;;;;;;1.52;0.80;;;;;;;;;;5008727;28;20018;-75
2021/05/14 05:05:20;;;;;;;2.65;0.90;;;;;;;;;;5011783;28;20533;-74
2021/05/14 05:07:46;;;;;;;1.42;0.80;;;;;;;;;;5010367;28;20056;-75
2021/05/14 05:10:11;;;;;;;1.45;0.88;;;;;;;;;;5010108;28;20481;-75
2021/05/14 05:12:36;;;;;;;2.35;1.00;;;;;;;;;;5006186;28;20029;-75
2021/05/14 05:15:02;;;;;;;1.33;0.88;;;;;;;;;;5004803;28;20029;-75
2021/05/14 05:17:27;;;;;;;1.38;0.80;;;;;;;;;;4993211;28;20041;-76
2021/05/14 05:19:52;;;;;;;1.77;0.93;;;;;;;;;;4992612;28;20034;-73
2021/05/14 05:22:17;;;;;;;2.53;0.80;;;;;;;;;;4993786;28;20026;-74
2021/05/14 05:24:43;;;;;;;1.13;0.77;;;;;;;;;;5010152;28;20026;-74
2021/05/14 05:27:08;;;;;;;3.00;1.33;;;;;;;;;;5009076;28;20018;-74
2021/05/14 05:29:36;;;;;;;2.42;0.80;;;;;;;;;;5009357;28;20772;-74
2021/05/14 05:32:01;;;;;;;1.55;0.90;;;;;;;;;;5004562;28;20496;-76
2021/05/14 05:34:28;;;;;;;1.25;0.63;;;;;;;;;;5010698;28;20060;-75
2021/05/14 05:36:53;;;;;;;3.25;0.90;;;;;;;;;;5011488;28;20104;-75
2021/05/14 05:39:18;;;;;;;1.95;0.60;;;;;;;;;;5010706;28;20485;-74
2021/05/14 05:41:43;;;;;;;2.10;0.60;;;;;;;;;;5011413;28;20037;-74
2021/05/14 05:44:08;;;;;;;1.20;0.70;;;;;;;;;;4993865;28;20708;-74
2021/05/14 05:46:33;;;;;;;2.22;0.70;;;;;;;;;;5011179;28;20261;-74
2021/05/14 05:48:59;;;;;;;1.13;0.70;;;;;;;;;;5011680;28;20375;-76
2021/05/14 05:51:24;;;;;;;2.05;0.70;;;;;;;;;;5011096;28;20498;-75
2021/05/14 05:53:49;;;;;;;1.75;0.63;;;;;;;;;;5008804;28;20516;-74
2021/05/14 05:56:14;;;;;;;2.42;0.70;;;;;;;;;;5011178;28;20022;-74
2021/05/14 05:58:39;;;;;;;2.40;0.60;;;;;;;;;;5011267;28;20265;-74
2021/05/14 06:01:05;;;;;;;1.25;0.57;;;;;;;;;;5010126;28;20105;-75
2021/05/14 06:03:30;;;;;;;1.73;0.70;;;;;;;;;;5010894;28;20018;-74
2021/05/14 06:05:55;;;;;;;1.65;0.55;;;;;;;;;;5010354;28;20675;-73
2021/05/14 06:08:20;;;;;;;3.97;0.60;;;;;;;;;;5010888;28;20018;-74
2021/05/14 06:10:49;;;;;;;2.95;0.68;;;;;;;;;;5010872;28;20695;-74
2021/05/14 06:13:14;;;;;;;1.65;0.60;;;;;;;;;;5009611;28;20034;-74
2021/05/14 06:15:39;;;;;;;1.38;0.60;;;;;;;;;;5010448;28;20036;-75
2021/05/14 06:18:04;;;;;;;1.30;0.50;;;;;;;;;;5009756;28;20025;-74
2021/05/14 06:20:31;;;;;;;1.38;0.45;;;;;;;;;;5008539;28;20276;-74
2021/05/14 06:22:57;;;;;;;1.52;0.70;;;;;;;;;;5009906;28;20025;-75
2021/05/14 06:25:22;;;;;;;1.10;0.50;;;;;;;;;;5009114;28;20013;-73
2021/05/14 06:27:47;;;;;;;1.25;0.60;;;;;;;;;;5010380;28;20271;-73
2021/05/14 06:30:13;;;;;;;0.90;0.50;;;;;;;;;;5008342;28;20037;-74
2021/05/14 06:32:38;;;;;;;1.75;0.60;;;;;;;;;;5009323;28;20084;-74
2021/05/14 06:35:04;;;;;;;1.05;0.50;;;;;;;;;;5007904;28;20545;-74
2021/05/14 06:37:31;;;;;;;1.67;0.60;;;;;;;;;;5008654;28;20105;-75
2021/05/14 06:39:56;;;;;;;2.42;1.10;;;;;;;;;;5009296;28;20437;-74
2021/05/14 06:42:21;;;;;;;1.65;0.60;;;;;;;;;;5009270;28;20025;-76
2021/05/14 06:44:47;;;;;;;2.17;0.82;;;;;;;;;;5009818;28;20398;-74
2021/05/14 06:47:13;;;;;;;1.77;0.70;;;;;;;;;;4991467;28;20496;-74
2021/05/14 06:49:38;;;;;;;1.47;0.60;;;;;;;;;;5008820;28;20025;-76
2021/05/14 06:52:03;;;;;;;1.57;0.67;;;;;;;;;;5009660;28;20268;-74
2021/05/14 06:54:28;;;;;;;1.55;0.63;;;;;;;;;;5008671;28;20293;-75
2021/05/14 06:56:53;;;;;;;1.63;0.67;;;;;;;;;;4991251;28;20534;-75
2021/05/14 06:59:19;;;;;;;1.05;0.57;;;;;;;;;;4991758;28;20269;-75
2021/05/14 07:01:44;;;;;;;0.90;0.45;;;;;;;;;;5008824;28;20113;-74
2021/05/14 07:04:09;;;;;;;1.20;0.55;;;;;;;;;;5009886;28;20354;-74
2021/05/14 07:06:35;;;;;;;1.25;0.60;;;;;;;;;;5009012;28;20025;-76
2021/05/14 07:09:00;;;;;;;1.60;0.47;;;;;;;;;;5009629;28;20014;-76
2021/05/14 07:11:25;;;;;;;2.80;0.98;;;;;;;;;;5006987;28;20061;-75
2021/05/14 07:13:50;;;;;;;1.88;0.65;;;;;;;;;;5010964;28;20033;-75
2021/05/14 07:16:16;;;;;;;1.38;0.75;;;;;;;;;;5021455;28;20074;-76
2021/05/14 07:18:41;;;;;;;0.85;0.50;;;;;;;;;;4992676;28;20101;-75
2021/05/14 07:21:06;;;;;;;2.42;0.85;;;;;;;;;;5009202;28;20029;-74
2021/05/14 07:23:32;;;;;;;3.28;0.65;;;;;;;;;;5009806;28;20022;-76
2021/05/14 07:25:58;;;;;;;2.20;0.70;;;;;;;;;;5008952;28;20084;-74
2021/05/14 07:28:23;;;;;;;0.73;0.50;;;;;;;;;;5009093;28;20063;-76
2021/05/14 07:30:48;;;;;;;1.42;0.70;;;;;;;;;;5009538;28;20084;-75
2021/05/14 07:33:13;;;;;;;0.98;0.60;;;;;;;;;;5008941;28;20029;-76
2021/05/14 07:35:40;;;;;;;0.88;0.55;;;;;;;;;;5008790;28;20022;-77
2021/05/14 07:38:05;;;;;;;0.80;0.65;;;;;;;;;;4991348;28;20033;-75
2021/05/14 07:40:30;;;;;;;1.02;0.55;;;;;;;;;;5009000;28;20033;-74
2021/05/14 07:42:55;;;;;;;1.73;0.70;;;;;;;;;;5006827;28;20049;-73
2021/05/14 07:45:21;;;;;;;2.00;0.50;;;;;;;;;;5006330;28;20092;-75
2021/05/14 07:47:46;;;;;;;1.42;0.60;;;;;;;;;;5009332;28;20148;-75
2021/05/14 07:50:11;;;;;;;2.42;0.70;;;;;;;;;;5008726;28;20022;-75
2021/05/14 07:52:39;;;;;;;2.65;0.60;;;;;;;;;;5002342;28;20034;-76
2021/05/14 07:55:04;;;;;;;1.60;0.50;;;;;;;;;;4991250;28;20061;-75
2021/05/14 07:57:30;;;;;;;1.27;0.50;;;;;;;;;;5005995;28;20104;-77
2021/05/14 07:59:55;;;;;;;2.55;0.60;;;;;;;;;;5008148;28;20022;-74
2021/05/14 08:02:20;;;;;;;0.77;0.60;;;;;;;;;;5007876;28;20531;-75
2021/05/14 08:04:45;;;;;;;1.25;0.45;;;;;;;;;;5009499;28;20033;-75
2021/05/14 08:07:10;;;;;;;1.42;0.68;;;;;;;;;;5006702;28;20029;-74
2021/05/14 08:09:36;;;;;;;1.05;0.40;;;;;;;;;;5007322;28;20022;-75
2021/05/14 08:12:05;;;;;;;1.83;0.55;;;;;;;;;;5006968;28;20021;-76
2021/05/14 08:14:30;;;;;;;1.80;0.50;;;;;;;;;;5008477;28;20034;-76
2021/05/14 08:16:56;;;;;;;1.23;0.60;;;;;;;;;;5008121;28;20358;-75
2021/05/14 08:19:21;;;;;;;1.25;0.55;;;;;;;;;;5006272;28;20022;-75
2021/05/14 08:21:47;;;;;;;2.25;0.35;;;;;;;;;;5009075;28;20097;-76
2021/05/14 08:24:12;;;;;;;1.00;0.50;;;;;;;;;;5009499;28;20029;-78
2021/05/14 08:26:38;;;;;;;0.93;0.55;;;;;;;;;;5009835;28;20504;-78
2021/05/14 08:29:04;;;;;;;4.68;0.80;;;;;;;;;;5008550;28;20465;-78
2021/05/14 08:31:29;;;;;;;0.73;0.50;;;;;;;;;;5008565;28;20084;-78
2021/05/14 08:33:54;;;;;;;2.58;0.60;;;;;;;;;;5009102;28;20191;-78
2021/05/14 08:36:19;;;;;;;1.02;0.52;;;;;;;;;;5007765;28;20576;-78
2021/05/14 08:38:45;;;;;;;0.40;0.40;;;;;;;;;;5009748;28;20040;-79
2021/05/14 08:41:11;;;;;;;2.35;0.55;;;;;;;;;;5018865;28;20087;-75
2021/05/14 08:43:36;;;;;;;2.83;0.82;;;;;;;;;;5012938;28;20105;-78
2021/05/14 08:46:02;;;;;;;0.75;0.40;;;;;;;;;;5012584;28;20121;-77
2021/05/14 08:48:29;;;;;;;1.35;0.47;;;;;;;;;;5010479;28;20520;-79
2021/05/14 08:50:54;;;;;;;2.70;0.90;;;;;;;;;;5012285;28;20112;-76
2021/05/14 08:53:19;;;;;;;1.60;0.60;;;;;;;;;;5011151;28;20089;-73
2021/05/14 08:55:45;;;;;;;1.10;0.40;;;;;;;;;;4993378;28;20305;-74
2021/05/14 08:58:10;;;;;;;1.63;0.50;;;;;;;;;;4992830;28;20097;-78
2021/05/14 09:00:35;;;;;;;1.08;0.50;;;;;;;;;;4994674;28;20389;-76
2021/05/14 09:03:06;;;;;;;0.93;0.50;;;;;;;;;;4992165;28;20026;-77
2021/05/14 09:05:33;;;;;;;1.10;0.60;;;;;;;;;;4998686;28;20395;-77
2021/05/14 09:07:59;;;;;;;2.05;0.60;;;;;;;;;;4991624;28;20407;-77
2021/05/14 09:10:25;;;;;;;2.22;0.50;;;;;;;;;;4992519;28;20033;-77
2021/05/14 09:12:51;;;;;;;1.02;0.40;;;;;;;;;;4990975;28;20027;-78
2021/05/14 09:15:20;;;;;;;1.17;0.40;;;;;;;;;;4992126;28;20457;-78
2021/05/14 09:18:01;;;;;;;2.78;0.70;;;;;;;;;;4994092;28;20026;-78
2021/05/14 09:20:30;;;;;;;1.90;0.40;;;;;;;;;;4987169;28;20390;-77
2021/05/14 09:22:55;;;;;;;1.65;0.50;;;;;;;;;;4996904;28;20022;-73
2021/05/14 09:25:20;;;;;;;2.97;0.80;;;;;;;;;;4994244;28;20033;-73
2021/05/14 09:27:45;;;;;;;0.80;0.50;;;;;;;;;;4995349;28;20038;-75
2021/05/14 09:30:11;;;;;;;0.73;0.50;;;;;;;;;;4995967;28;20461;-72
2021/05/14 09:32:38;;;;;;;1.30;0.40;;;;;;;;;;4994705;28;20022;-75
2021/05/14 09:35:04;;;;;;;1.48;0.40;;;;;;;;;;4992096;28;20034;-74
2021/05/14 09:37:30;;;;;;;1.77;0.50;;;;;;;;;;4992727;28;20014;-74
2021/05/14 09:40:21;;;;;;;1.27;0.40;;;;;;;;;;4999762;28;20489;-73
2021/05/14 09:42:47;;;;;;;0.80;0.40;;;;;;;;;;4987832;28;20034;-75
2021/05/14 09:45:20;;;;;;;0.60;0.30;;;;;;;;;;4995118;28;20022;-74
2021/05/14 09:47:59;;;;;;;0.85;0.70;;;;;;;;;;4992710;28;20030;-75
2021/05/14 09:50:37;;;;;;;0.93;0.40;;;;;;;;;;4989977;28;20022;-74
2021/05/14 09:53:02;;;;;;;1.88;0.60;;;;;;;;;;4991546;28;20034;-70
2021/05/14 09:55:27;;;;;;;0.95;0.30;;;;;;;;;;4992010;28;20049;-76
2021/05/14 09:58:01;;;;;;;2.13;0.47;;;;;;;;;;5010380;28;20308;-75
2021/05/14 10:00:27;;;;;;;1.13;0.30;;;;;;;;;;5006680;28;20368;-73
2021/05/14 10:02:52;;;;;;;0.90;0.40;;;;;;;;;;5010271;28;20588;-75
2021/05/14 10:05:18;;;;;;;1.92;0.47;;;;;;;;;;5008469;28;20110;-75
2021/05/14 10:07:45;;;;;;;0.70;0.50;;;;;;;;;;5010715;28;20444;-74
2021/05/14 10:10:12;;;;;;;0.82;0.40;;;;;;;;;;5006865;28;20041;-73
2021/05/14 10:12:37;;;;;;;1.00;0.32;;;;;;;;;;5010959;28;20029;-73
2021/05/14 10:15:04;;;;;;;0.47;0.30;;;;;;;;;;5005723;28;20440;-73
2021/05/14 10:17:29;;;;;;;2.40;0.30;;;;;;;;;;5010494;28;20140;-73
2021/05/14 10:19:56;;;;;;;0.90;0.30;;;;;;;;;;5007633;28;20497;-73
2021/05/14 10:22:25;;;;;;;0.82;0.40;;;;;;;;;;5010239;28;20052;-74
2021/05/14 10:24:53;;;;;;;1.88;0.50;;;;;;;;;;5004737;28;20130;-73
2021/05/14 10:27:25;;;;;;;1.23;0.40;;;;;;;;;;4996831;28;20113;-74
2021/05/14 10:29:52;;;;;;;1.13;0.30;;;;;;;;;;5006923;28;20499;-73
2021/05/14 10:32:37;;;;;;;1.67;0.35;;;;;;;;;;5009768;28;20025;-71
2021/05/14 10:35:06;;;;;;;0.45;0.30;;;;;;;;;;5005671;28;20024;-73
2021/05/14 10:37:52;;;;;;;1.17;0.47;;;;;;;;;;5005475;28;20021;-73
2021/05/14 10:40:30;;;;;;;1.73;0.57;;;;;;;;;;5014968;28;20021;-73
2021/05/14 10:43:04;;;;;;;0.95;0.40;;;;;;;;;;5016879;28;20025;-74
2021/05/14 10:45:40;;;;;;;2.63;0.50;;;;;;;;;;5013949;28;20354;-73
2021/05/14 10:48:16;;;;;;;1.67;0.47;;;;;;;;;;5016870;28;20360;-74
2021/05/14 10:50:42;;;;;;;0.30;0.30;;;;;;;;;;5016761;28;20018;-74
2021/05/14 10:53:17;;;;;;;0.30;0.30;;;;;;;;;;5013777;28;20465;-73
2021/05/14 10:55:42;;;;;;;1.30;0.40;;;;;;;;;;5016570;28;20041;-73
2021/05/14 10:58:07;;;;;;;3.53;0.50;;;;;;;;;;5019960;28;20094;-73
2021/05/14 11:00:37;;;;;;;1.95;0.50;;;;;;;;;;5017452;28;20053;-74
2021/05/14 11:03:13;;;;;;;0.50;0.30;;;;;;;;;;5012022;28;20033;-74
2021/05/14 11:05:40;;;;;;;3.53;0.40;;;;;;;;;;5015607;28;20037;-72
2021/05/14 11:08:07;;;;;;;2.58;0.60;;;;;;;;;;5016296;28;20101;-73
2021/05/14 11:10:36;;;;;;;0.57;0.32;;;;;;;;;;5015350;28;20025;-74
2021/05/14 11:13:34;;;;;;;2.08;0.50;;;;;;;;;;5014309;28;20108;-72
2021/05/14 11:16:19;;;;;;;2.53;0.40;;;;;;;;;;5012233;28;20037;-73
2021/05/14 11:18:51;;;;;;;1.20;0.30;;;;;;;;;;5002969;28;20036;-72
2021/05/14 11:21:18;;;;;;;0.45;0.30;;;;;;;;;;5011201;28;20030;-71
2021/05/14 11:23:43;;;;;;;0.93;0.30;;;;;;;;;;5009297;28;20052;-72
2021/05/14 11:26:16;;;;;;;0.55;0.35;;;;;;;;;;5007375;28;20025;-72
2021/05/14 11:28:45;;;;;;;0.65;0.45;;;;;;;;;;5002044;28;20026;-71
2021/05/14 11:31:20;;;;;;;0.30;0.30;;;;;;;;;;5008362;28;20021;-72
2021/05/14 11:33:50;;;;;;;0.77;0.40;;;;;;;;;;5007996;28;20029;-71
2021/05/14 11:36:15;;;;;;;0.95;0.50;;;;;;;;;;5007237;28;20475;-71
2021/05/14 11:38:51;;;;;;;1.60;0.75;;;;;;;;;;4989730;28;20030;-71
2021/05/14 11:41:23;;;;;;;1.55;0.40;;;;;;;;;;5008268;28;20079;-72
2021/05/14 11:43:52;;;;;;;0.85;0.35;;;;;;;;;;5006816;28;20057;-72
2021/05/14 11:46:17;;;;;;;0.40;0.40;;;;;;;;;;5008202;28;20117;-71
2021/05/14 11:48:42;;;;;;;1.40;0.30;;;;;;;;;;5007249;28;20534;-72
2021/05/14 11:51:07;;;;;;;1.05;0.35;;;;;;;;;;5007736;28;20112;-69
2021/05/14 11:53:33;;;;;;;0.50;0.30;;;;;;;;;;5007416;28;20473;-69
2021/05/14 11:55:58;;;;;;;0.75;0.30;;;;;;;;;;5008755;28;20310;-71
2021/05/14 11:58:26;;;;;;;0.47;0.30;;;;;;;;;;5007669;28;20033;-72
2021/05/14 12:00:52;;;;;;;0.35;0.30;;;;;;;;;;5006888;28;20284;-71
2021/05/14 12:03:18;;;;;;;2.38;0.40;;;;;;;;;;4988486;28;20041;-71
2021/05/14 12:05:44;;;;;;;1.17;0.40;;;;;;;;;;5007849;28;20026;-71
2021/05/14 12:08:10;;;;;;;0.85;0.40;;;;;;;;;;5006694;28;20040;-71
2021/05/14 12:10:43;;;;;;;0.95;0.40;;;;;;;;;;4990130;28;20378;-71
2021/05/14 12:13:11;;;;;;;0.40;0.30;;;;;;;;;;5007497;28;20426;-71
2021/05/14 12:15:38;;;;;;;0.93;0.30;;;;;;;;;;5006575;28;20029;-72
2021/05/14 12:18:03;;;;;;;1.42;0.40;;;;;;;;;;5006642;28;20423;-71
2021/05/14 12:20:29;;;;;;;2.15;0.45;;;;;;;;;;5005392;28;20014;-70
2021/05/14 12:22:59;;;;;;;2.15;0.40;;;;;;;;;;5004355;28;20853;-72
2021/05/14 12:25:25;;;;;;;0.75;0.38;;;;;;;;;;5007000;28;20018;-70
2021/05/14 12:27:50;;;;;;;0.93;0.60;;;;;;;;;;5007292;28;20033;-70
2021/05/14 12:30:16;;;;;;;0.68;0.35;;;;;;;;;;5008297;28;20373;-70
2021/05/14 12:32:42;;;;;;;0.70;0.30;;;;;;;;;;5005176;28;20366;-70
2021/05/14 12:35:07;;;;;;;2.10;0.47;;;;;;;;;;5005904;28;20026;-70
2021/05/14 12:37:33;;;;;;;1.10;0.50;;;;;;;;;;5005929;28;20026;-70
2021/05/14 12:39:58;;;;;;;1.05;0.45;;;;;;;;;;5005271;28;20048;-73
2021/05/14 12:42:30;;;;;;;1.10;0.30;;;;;;;;;;5006112;28;20030;-71
2021/05/14 12:44:58;;;;;;;0.43;0.40;;;;;;;;;;5006850;28;20014;-75
2021/05/14 12:47:27;;;;;;;1.20;0.35;;;;;;;;;;5005401;28;20048;-72
2021/05/14 12:49:58;;;;;;;0.40;0.22;;;;;;;;;;5007700;28;20026;-73
2021/05/14 12:52:23;;;;;;;0.65;0.30;;;;;;;;;;5008088;28;20061;-71
2021/05/14 12:55:02;;;;;;;6.50;0.52;;;;;;;;;;5007934;28;20077;-75
2021/05/14 12:57:50;;;;;;;0.47;0.40;;;;;;;;;;5005890;28;20469;-71
2021/05/14 13:00:16;;;;;;;1.23;0.40;;;;;;;;;;5006767;28;20443;-73
2021/05/14 13:03:03;;;;;;;0.40;0.30;;;;;;;;;;5005078;28;20096;-75
2021/05/14 13:05:44;;;;;;;0.80;0.30;;;;;;;;;;5003565;28;20038;-74
2021/05/14 13:08:10;;;;;;;1.67;0.40;;;;;;;;;;5000047;28;20034;-75
2021/05/14 13:10:48;;;;;;;0.63;0.40;;;;;;;;;;5001893;28;20018;-75
2021/05/14 13:13:13;;;;;;;1.52;0.60;;;;;;;;;;5007488;28;20056;-74
2021/05/14 13:15:39;;;;;;;1.33;0.63;;;;;;;;;;5008346;28;20430;-72
2021/05/14 13:18:05;;;;;;;0.30;0.30;;;;;;;;;;5007061;28;20022;-72
2021/05/14 13:20:30;;;;;;;2.45;0.40;;;;;;;;;;5006413;28;20109;-73
2021/05/14 13:22:55;;;;;;;0.85;0.40;;;;;;;;;;5007010;28;20112;-71
2021/05/14 13:25:21;;;;;;;0.70;0.40;;;;;;;;;;5010118;28;20053;-72
2021/05/14 13:27:46;;;;;;;0.68;0.30;;;;;;;;;;4993846;28;20034;-71
2021/05/14 13:30:12;;;;;;;0.52;0.30;;;;;;;;;;5009747;28;20594;-71
2021/05/14 13:32:37;;;;;;;0.40;0.30;;;;;;;;;;5008965;28;20033;-72
2021/05/14 13:35:04;;;;;;;0.88;0.35;;;;;;;;;;5010405;28;20025;-73
2021/05/14 13:37:29;;;;;;;0.40;0.30;;;;;;;;;;5010049;28;20053;-72
2021/05/14 13:39:55;;;;;;;1.42;0.40;;;;;;;;;;5010295;28;20053;-71
2021/05/14 13:42:20;;;;;;;0.67;0.30;;;;;;;;;;5010157;28;20038;-71
2021/05/14 13:44:45;;;;;;;0.98;0.35;;;;;;;;;;5010088;28;20346;-71
2021/05/14 13:47:10;;;;;;;3.53;0.50;;;;;;;;;;5010309;28;20080;-72
2021/05/14 13:49:35;;;;;;;1.33;0.30;;;;;;;;;;5009873;28;20368;-71
2021/05/14 13:52:02;;;;;;;0.40;0.30;;;;;;;;;;4991419;28;20117;-71
2021/05/14 13:54:27;;;;;;;0.95;0.40;;;;;;;;;;5008639;28;20767;-72
2021/05/14 13:56:53;;;;;;;2.15;0.43;;;;;;;;;;5009894;28;20041;-72
2021/05/14 13:59:18;;;;;;;0.80;0.40;;;;;;;;;;5010226;28;20129;-71
2021/05/14 14:01:43;;;;;;;0.27;0.20;;;;;;;;;;5009409;28;20276;-74
2021/05/14 14:04:08;;;;;;;4.32;0.47;;;;;;;;;;5007316;28;20286;-72
2021/05/14 14:06:33;;;;;;;0.90;0.20;;;;;;;;;;5005107;28;20033;-72
2021/05/14 14:08:58;;;;;;;0.80;0.40;;;;;;;;;;5007926;28;20755;-70
2021/05/14 14:11:24;;;;;;;0.77;0.40;;;;;;;;;;4992520;28;20280;-73
2021/05/14 14:13:49;;;;;;;0.65;0.40;;;;;;;;;;5007455;28;20053;-69
2021/05/14 14:16:14;;;;;;;1.15;0.30;;;;;;;;;;5009698;28;20057;-72
2021/05/14 14:18:40;;;;;;;1.00;0.43;;;;;;;;;;5005211;28;20026;-72
2021/05/14 14:21:05;;;;;;;1.27;0.52;;;;;;;;;;5002566;28;20368;-72
2021/05/14 14:23:30;;;;;;;1.25;0.50;;;;;;;;;;5009282;28;20022;-72
2021/05/14 14:25:55;;;;;;;2.05;0.50;;;;;;;;;;5009705;28;20319;-71
2021/05/14 14:28:20;;;;;;;0.95;0.20;;;;;;;;;;5009197;28;20079;-71
2021/05/14 14:30:46;;;;;;;2.47;0.60;;;;;;;;;;5009170;28;20105;-71
2021/05/14 14:33:11;;;;;;;0.85;0.38;;;;;;;;;;5021036;28;20546;-73
2021/05/14 14:35:36;;;;;;;2.38;0.38;;;;;;;;;;5007227;28;20018;-73
2021/05/14 14:38:01;;;;;;;2.80;0.50;;;;;;;;;;4994754;28;20551;-71
2021/05/14 14:40:27;;;;;;;1.90;0.40;;;;;;;;;;5011427;28;20309;-74